sensor_id;sensor_type;location;lat;lon;timestamp;pressure;altitude;pressure_sealevel;temperature;humidity
26719;BME280;14326;50.794;6.060;2022-12-18T00:00:08;100793.72;;;-7.25;94.91
26719;BME280;14326;50.794;6.060;2022-12-18T00:02:35;100789.31;;;-7.26;95.49
26719;BME280;14326;50.794;6.060;2022-12-18T00:05:03;100781.97;;;-7.13;95.41
26719;BME280;14326;50.794;6.060;2022-12-18T00:07:30;100785.16;;;-7.07;94.86
26719;BME280;14326;50.794;6.060;2022-12-18T00:09:57;100783.47;;;-7.07;94.37
26719;BME280;14326;50.794;6.060;2022-12-18T00:12:24;100788.19;;;-7.11;94.40
26719;BME280;14326;50.794;6.060;2022-12-18T00:14:52;100787.00;;;-7.23;94.21
26719;BME280;14326;50.794;6.060;2022-12-18T00:17:19;100794.63;;;-7.25;94.89
26719;BME280;14326;50.794;6.060;2022-12-18T00:19:46;100794.94;;;-7.39;94.83
26719;BME280;14326;50.794;6.060;2022-12-18T00:22:12;100800.88;;;-7.31;95.52
26719;BME280;14326;50.794;6.060;2022-12-18T00:24:39;100809.69;;;-7.38;95.20
26719;BME280;14326;50.794;6.060;2022-12-18T00:27:05;100806.50;;;-7.44;95.12
26719;BME280;14326;50.794;6.060;2022-12-18T00:29:32;100810.75;;;-7.53;95.05
26719;BME280;14326;50.794;6.060;2022-12-18T00:32:00;100810.59;;;-7.37;95.06
26719;BME280;14326;50.794;6.060;2022-12-18T00:34:27;100807.75;;;-7.49;94.47
26719;BME280;14326;50.794;6.060;2022-12-18T00:36:53;100809.56;;;-7.48;94.74
26719;BME280;14326;50.794;6.060;2022-12-18T00:39:20;100794.66;;;-7.59;94.60
26719;BME280;14326;50.794;6.060;2022-12-18T00:41:46;100795.41;;;-7.52;94.31
26719;BME280;14326;50.794;6.060;2022-12-18T00:44:31;100790.69;;;-7.47;94.33
26719;BME280;14326;50.794;6.060;2022-12-18T00:46:57;100787.19;;;-7.48;94.14
26719;BME280;14326;50.794;6.060;2022-12-18T00:49:25;100792.22;;;-7.58;94.31
26719;BME280;14326;50.794;6.060;2022-12-18T00:51:52;100798.63;;;-7.63;94.01
26719;BME280;14326;50.794;6.060;2022-12-18T00:54:21;100786.31;;;-7.82;94.58
26719;BME280;14326;50.794;6.060;2022-12-18T00:56:48;100789.66;;;-7.92;94.82
26719;BME280;14326;50.794;6.060;2022-12-18T00:59:15;100786.78;;;-7.87;95.40
26719;BME280;14326;50.794;6.060;2022-12-18T01:01:42;100788.91;;;-7.82;95.45
26719;BME280;14326;50.794;6.060;2022-12-18T01:04:08;100785.88;;;-7.87;95.31
26719;BME280;14326;50.794;6.060;2022-12-18T01:06:36;100777.22;;;-7.79;95.48
26719;BME280;14326;50.794;6.060;2022-12-18T01:09:04;100781.63;;;-7.87;95.26
26719;BME280;14326;50.794;6.060;2022-12-18T01:11:30;100781.44;;;-7.88;95.18
26719;BME280;14326;50.794;6.060;2022-12-18T01:13:57;100786.50;;;-7.90;94.92
26719;BME280;14326;50.794;6.060;2022-12-18T01:16:24;100778.25;;;-7.94;95.62
26719;BME280;14326;50.794;6.060;2022-12-18T01:18:51;100772.06;;;-7.96;95.69
26719;BME280;14326;50.794;6.060;2022-12-18T01:21:19;100762.19;;;-7.92;95.37
26719;BME280;14326;50.794;6.060;2022-12-18T01:23:51;100764.00;;;-7.82;95.06
26719;BME280;14326;50.794;6.060;2022-12-18T01:26:19;100758.53;;;-7.85;94.10
26719;BME280;14326;50.794;6.060;2022-12-18T01:28:45;100763.41;;;-7.79;94.20
26719;BME280;14326;50.794;6.060;2022-12-18T01:31:14;100751.84;;;-7.83;93.72
26719;BME280;14326;50.794;6.060;2022-12-18T01:33:41;100758.41;;;-7.95;93.46
26719;BME280;14326;50.794;6.060;2022-12-18T01:36:11;100758.53;;;-8.02;93.59
26719;BME280;14326;50.794;6.060;2022-12-18T01:38:40;100757.59;;;-8.11;93.94
26719;BME280;14326;50.794;6.060;2022-12-18T01:41:09;100766.44;;;-8.09;93.80
26719;BME280;14326;50.794;6.060;2022-12-18T01:43:47;100779.47;;;-8.16;93.83
26719;BME280;14326;50.794;6.060;2022-12-18T01:46:14;100777.63;;;-8.17;94.17
26719;BME280;14326;50.794;6.060;2022-12-18T01:48:42;100774.78;;;-8.03;94.25
26719;BME280;14326;50.794;6.060;2022-12-18T01:51:10;100773.28;;;-8.01;93.97
26719;BME280;14326;50.794;6.060;2022-12-18T01:53:39;100776.28;;;-8.05;94.31
26719;BME280;14326;50.794;6.060;2022-12-18T01:56:07;100770.97;;;-7.98;94.13
26719;BME280;14326;50.794;6.060;2022-12-18T01:58:41;100762.47;;;-8.14;93.49
26719;BME280;14326;50.794;6.060;2022-12-18T02:01:10;100763.53;;;-8.04;94.18
26719;BME280;14326;50.794;6.060;2022-12-18T02:03:37;100761.25;;;-8.01;94.08
26719;BME280;14326;50.794;6.060;2022-12-18T02:06:11;100764.13;;;-8.06;94.08
26719;BME280;14326;50.794;6.060;2022-12-18T02:08:46;100760.50;;;-8.08;94.14
26719;BME280;14326;50.794;6.060;2022-12-18T02:11:19;100756.09;;;-8.18;93.98
26719;BME280;14326;50.794;6.060;2022-12-18T02:13:56;100758.50;;;-8.28;94.00
26719;BME280;14326;50.794;6.060;2022-12-18T02:16:34;100749.72;;;-8.30;94.36
26719;BME280;14326;50.794;6.060;2022-12-18T02:19:15;100748.63;;;-8.23;94.54
26719;BME280;14326;50.794;6.060;2022-12-18T02:21:54;100742.88;;;-8.30;94.21
26719;BME280;14326;50.794;6.060;2022-12-18T02:24:29;100746.38;;;-8.20;94.11
26719;BME280;14326;50.794;6.060;2022-12-18T02:27:03;100747.78;;;-8.33;93.99
26719;BME280;14326;50.794;6.060;2022-12-18T02:29:35;100750.94;;;-8.27;94.45
26719;BME280;14326;50.794;6.060;2022-12-18T02:32:06;100745.91;;;-8.16;94.36
26719;BME280;14326;50.794;6.060;2022-12-18T02:34:37;100740.63;;;-8.27;94.06
26719;BME280;14326;50.794;6.060;2022-12-18T02:37:07;100748.84;;;-8.31;94.02
26719;BME280;14326;50.794;6.060;2022-12-18T02:39:36;100746.41;;;-8.38;93.80
26719;BME280;14326;50.794;6.060;2022-12-18T02:42:06;100750.63;;;-8.47;94.27
26719;BME280;14326;50.794;6.060;2022-12-18T02:44:33;100748.78;;;-8.48;94.50
26719;BME280;14326;50.794;6.060;2022-12-18T02:47:02;100746.06;;;-8.41;94.66
26719;BME280;14326;50.794;6.060;2022-12-18T02:49:34;100749.41;;;-8.24;94.65
26719;BME280;14326;50.794;6.060;2022-12-18T02:52:09;100741.53;;;-8.35;93.80
26719;BME280;14326;50.794;6.060;2022-12-18T02:54:51;100736.50;;;-8.42;93.67
26719;BME280;14326;50.794;6.060;2022-12-18T02:57:26;100737.72;;;-8.47;94.21
26719;BME280;14326;50.794;6.060;2022-12-18T02:59:58;100733.59;;;-8.53;94.42
26719;BME280;14326;50.794;6.060;2022-12-18T03:02:33;100731.06;;;-8.45;94.60
26719;BME280;14326;50.794;6.060;2022-12-18T03:05:07;100724.53;;;-8.50;94.59
26719;BME280;14326;50.794;6.060;2022-12-18T03:07:41;100719.69;;;-8.55;94.63
26719;BME280;14326;50.794;6.060;2022-12-18T03:10:12;100722.41;;;-8.45;94.60
26719;BME280;14326;50.794;6.060;2022-12-18T03:12:44;100715.72;;;-8.52;93.97
26719;BME280;14326;50.794;6.060;2022-12-18T03:15:15;100712.69;;;-8.48;94.16
26719;BME280;14326;50.794;6.060;2022-12-18T03:17:46;100710.84;;;-8.57;94.42
26719;BME280;14326;50.794;6.060;2022-12-18T03:20:19;100702.66;;;-8.62;94.37
26719;BME280;14326;50.794;6.060;2022-12-18T03:22:51;100702.38;;;-8.48;94.62
26719;BME280;14326;50.794;6.060;2022-12-18T03:25:20;100700.53;;;-8.57;94.08
26719;BME280;14326;50.794;6.060;2022-12-18T03:27:51;100700.56;;;-8.66;94.26
26719;BME280;14326;50.794;6.060;2022-12-18T03:30:20;100701.44;;;-8.65;94.01
26719;BME280;14326;50.794;6.060;2022-12-18T03:32:52;100697.50;;;-8.53;94.20
26719;BME280;14326;50.794;6.060;2022-12-18T03:35:26;100697.22;;;-8.48;93.75
26719;BME280;14326;50.794;6.060;2022-12-18T03:37:55;100682.34;;;-8.42;93.67
26719;BME280;14326;50.794;6.060;2022-12-18T03:40:26;100688.44;;;-8.33;93.59
26719;BME280;14326;50.794;6.060;2022-12-18T03:43:01;100687.69;;;-8.49;92.97
26719;BME280;14326;50.794;6.060;2022-12-18T03:45:34;100690.53;;;-8.63;93.63
26719;BME280;14326;50.794;6.060;2022-12-18T03:48:07;100687.97;;;-8.54;93.87
26719;BME280;14326;50.794;6.060;2022-12-18T03:50:41;100687.19;;;-8.62;94.34
26719;BME280;14326;50.794;6.060;2022-12-18T03:53:19;100682.19;;;-8.69;94.27
26719;BME280;14326;50.794;6.060;2022-12-18T03:55:51;100683.53;;;-8.64;94.13
26719;BME280;14326;50.794;6.060;2022-12-18T03:58:22;100684.47;;;-8.72;94.06
26719;BME280;14326;50.794;6.060;2022-12-18T04:00:51;100678.38;;;-8.73;94.04
26719;BME280;14326;50.794;6.060;2022-12-18T04:03:18;100668.97;;;-8.81;94.12
26719;BME280;14326;50.794;6.060;2022-12-18T04:05:48;100676.25;;;-8.85;94.67
26719;BME280;14326;50.794;6.060;2022-12-18T04:08:15;100670.16;;;-8.86;95.62
26719;BME280;14326;50.794;6.060;2022-12-18T04:10:42;100676.53;;;-8.91;95.96
26719;BME280;14326;50.794;6.060;2022-12-18T04:13:09;100678.34;;;-8.81;96.26
26719;BME280;14326;50.794;6.060;2022-12-18T04:15:38;100672.47;;;-8.80;95.75
26719;BME280;14326;50.794;6.060;2022-12-18T04:18:05;100674.28;;;-8.79;95.92
26719;BME280;14326;50.794;6.060;2022-12-18T04:20:32;100674.78;;;-8.66;95.71
26719;BME280;14326;50.794;6.060;2022-12-18T04:22:59;100673.66;;;-8.77;94.87
26719;BME280;14326;50.794;6.060;2022-12-18T04:25:25;100668.81;;;-8.82;94.82
26719;BME280;14326;50.794;6.060;2022-12-18T04:27:52;100666.97;;;-8.83;94.83
26719;BME280;14326;50.794;6.060;2022-12-18T04:30:19;100659.25;;;-8.83;94.61
26719;BME280;14326;50.794;6.060;2022-12-18T04:32:47;100665.47;;;-8.81;94.49
26719;BME280;14326;50.794;6.060;2022-12-18T04:35:13;100654.72;;;-8.86;94.44
26719;BME280;14326;50.794;6.060;2022-12-18T04:37:40;100645.75;;;-8.89;94.17
26719;BME280;14326;50.794;6.060;2022-12-18T04:40:07;100648.59;;;-8.95;94.48
26719;BME280;14326;50.794;6.060;2022-12-18T04:42:34;100650.88;;;-8.89;94.80
26719;BME280;14326;50.794;6.060;2022-12-18T04:45:01;100635.28;;;-8.82;94.71
26719;BME280;14326;50.794;6.060;2022-12-18T04:47:27;100650.50;;;-8.68;94.96
26719;BME280;14326;50.794;6.060;2022-12-18T04:49:55;100659.28;;;-8.75;94.63
26719;BME280;14326;50.794;6.060;2022-12-18T04:52:22;100659.25;;;-8.83;94.67
26719;BME280;14326;50.794;6.060;2022-12-18T04:54:49;100664.41;;;-8.83;94.33
26719;BME280;14326;50.794;6.060;2022-12-18T04:57:15;100672.31;;;-8.73;94.36
26719;BME280;14326;50.794;6.060;2022-12-18T04:59:43;100680.53;;;-8.60;94.63
26719;BME280;14326;50.794;6.060;2022-12-18T05:02:10;100685.69;;;-8.51;94.39
26719;BME280;14326;50.794;6.060;2022-12-18T05:04:37;100679.91;;;-8.57;93.72
26719;BME280;14326;50.794;6.060;2022-12-18T05:07:05;100688.09;;;-8.53;92.43
26719;BME280;14326;50.794;6.060;2022-12-18T05:09:31;100682.31;;;-8.76;92.55
26719;BME280;14326;50.794;6.060;2022-12-18T05:11:58;100695.81;;;-8.79;92.91
26719;BME280;14326;50.794;6.060;2022-12-18T05:14:25;100695.63;;;-8.89;93.19
26719;BME280;14326;50.794;6.060;2022-12-18T05:16:52;100689.75;;;-8.71;93.88
26719;BME280;14326;50.794;6.060;2022-12-18T05:19:19;100690.19;;;-8.75;93.16
26719;BME280;14326;50.794;6.060;2022-12-18T05:21:45;100690.16;;;-8.83;93.06
26719;BME280;14326;50.794;6.060;2022-12-18T05:24:14;100695.78;;;-8.87;93.30
26719;BME280;14326;50.794;6.060;2022-12-18T05:26:40;100700.00;;;-8.96;93.43
26719;BME280;14326;50.794;6.060;2022-12-18T05:29:07;100700.22;;;-8.78;94.07
26719;BME280;14326;50.794;6.060;2022-12-18T05:31:37;100698.66;;;-8.93;93.69
26719;BME280;14326;50.794;6.060;2022-12-18T05:34:04;100703.63;;;-8.94;93.85
26719;BME280;14326;50.794;6.060;2022-12-18T05:36:31;100692.84;;;-9.07;93.72
26719;BME280;14326;50.794;6.060;2022-12-18T05:38:57;100698.00;;;-9.07;94.51
26719;BME280;14326;50.794;6.060;2022-12-18T05:41:26;100699.50;;;-9.01;94.59
26719;BME280;14326;50.794;6.060;2022-12-18T05:43:54;100695.28;;;-9.00;94.42
26719;BME280;14326;50.794;6.060;2022-12-18T05:46:20;100693.81;;;-8.81;94.09
26719;BME280;14326;50.794;6.060;2022-12-18T05:48:47;100688.03;;;-8.87;93.59
26719;BME280;14326;50.794;6.060;2022-12-18T05:51:17;100697.03;;;-8.84;93.14
26719;BME280;14326;50.794;6.060;2022-12-18T05:53:44;100697.78;;;-8.85;93.24
26719;BME280;14326;50.794;6.060;2022-12-18T05:56:13;100686.06;;;-8.98;93.09
26719;BME280;14326;50.794;6.060;2022-12-18T05:58:42;100692.25;;;-9.05;94.04
26719;BME280;14326;50.794;6.060;2022-12-18T06:01:11;100697.44;;;-8.96;93.90
26719;BME280;14326;50.794;6.060;2022-12-18T06:03:38;100703.84;;;-8.76;93.78
26719;BME280;14326;50.794;6.060;2022-12-18T06:06:12;100700.94;;;-8.87;93.14
26719;BME280;14326;50.794;6.060;2022-12-18T06:08:39;100696.41;;;-8.90;93.12
26719;BME280;14326;50.794;6.060;2022-12-18T06:11:06;100691.03;;;-9.00;92.81
26719;BME280;14326;50.794;6.060;2022-12-18T06:13:32;100676.78;;;-9.05;93.24
26719;BME280;14326;50.794;6.060;2022-12-18T06:16:03;100679.34;;;-9.05;93.73
26719;BME280;14326;50.794;6.060;2022-12-18T06:18:30;100680.78;;;-8.91;93.23
26719;BME280;14326;50.794;6.060;2022-12-18T06:20:57;100683.66;;;-8.88;93.01
26719;BME280;14326;50.794;6.060;2022-12-18T06:23:24;100674.41;;;-8.86;93.16
26719;BME280;14326;50.794;6.060;2022-12-18T06:25:51;100670.16;;;-8.86;93.35
26719;BME280;14326;50.794;6.060;2022-12-18T06:28:18;100685.63;;;-8.86;93.15
26719;BME280;14326;50.794;6.060;2022-12-18T06:30:45;100678.50;;;-8.88;92.93
26719;BME280;14326;50.794;6.060;2022-12-18T06:33:13;100675.50;;;-8.84;93.07
26719;BME280;14326;50.794;6.060;2022-12-18T06:35:41;100669.25;;;-8.86;92.79
26719;BME280;14326;50.794;6.060;2022-12-18T06:38:07;100678.50;;;-8.88;92.73
26719;BME280;14326;50.794;6.060;2022-12-18T06:40:36;100673.78;;;-8.92;92.94
26719;BME280;14326;50.794;6.060;2022-12-18T06:43:03;100681.53;;;-8.92;93.23
26719;BME280;14326;50.794;6.060;2022-12-18T06:45:30;100687.47;;;-8.85;93.86
26719;BME280;14326;50.794;6.060;2022-12-18T06:47:56;100688.78;;;-8.88;93.59
26719;BME280;14326;50.794;6.060;2022-12-18T06:50:24;100691.38;;;-8.97;93.31
26719;BME280;14326;50.794;6.060;2022-12-18T06:52:51;100692.56;;;-8.93;93.59
26719;BME280;14326;50.794;6.060;2022-12-18T06:55:18;100695.28;;;-9.00;93.03
26719;BME280;14326;50.794;6.060;2022-12-18T06:57:45;100694.88;;;-8.88;93.23
26719;BME280;14326;50.794;6.060;2022-12-18T07:00:12;100690.78;;;-8.77;93.05
26719;BME280;14326;50.794;6.060;2022-12-18T07:02:39;100695.31;;;-8.83;92.67
26719;BME280;14326;50.794;6.060;2022-12-18T07:05:06;100690.41;;;-9.06;92.06
26719;BME280;14326;50.794;6.060;2022-12-18T07:07:34;100682.97;;;-9.12;92.72
26719;BME280;14326;50.794;6.060;2022-12-18T07:10:01;100683.31;;;-9.08;93.08
26719;BME280;14326;50.794;6.060;2022-12-18T07:12:28;100689.03;;;-9.11;92.88
26719;BME280;14326;50.794;6.060;2022-12-18T07:14:55;100679.81;;;-9.09;92.69
26719;BME280;14326;50.794;6.060;2022-12-18T07:17:21;100681.22;;;-8.95;92.83
26719;BME280;14326;50.794;6.060;2022-12-18T07:19:48;100685.44;;;-9.04;92.02
26719;BME280;14326;50.794;6.060;2022-12-18T07:22:14;100680.72;;;-9.08;91.93
26719;BME280;14326;50.794;6.060;2022-12-18T07:24:43;100680.97;;;-9.23;92.02
26719;BME280;14326;50.794;6.060;2022-12-18T07:27:09;100686.72;;;-9.25;92.48
26719;BME280;14326;50.794;6.060;2022-12-18T07:29:36;100675.81;;;-9.23;92.57
26719;BME280;14326;50.794;6.060;2022-12-18T07:32:02;100668.06;;;-9.31;92.64
26719;BME280;14326;50.794;6.060;2022-12-18T07:34:29;100655.78;;;-9.34;93.64
26719;BME280;14326;50.794;6.060;2022-12-18T07:36:56;100653.72;;;-9.21;93.97
26719;BME280;14326;50.794;6.060;2022-12-18T07:39:22;100643.06;;;-9.24;93.90
26719;BME280;14326;50.794;6.060;2022-12-18T07:41:50;100635.84;;;-9.19;93.96
26719;BME280;14326;50.794;6.060;2022-12-18T07:44:31;100629.31;;;-9.16;93.99
26719;BME280;14326;50.794;6.060;2022-12-18T07:46:58;100627.81;;;-9.14;93.85
26719;BME280;14326;50.794;6.060;2022-12-18T07:49:24;100632.06;;;-9.14;94.04
26719;BME280;14326;50.794;6.060;2022-12-18T07:51:51;100614.03;;;-9.05;94.45
26719;BME280;14326;50.794;6.060;2022-12-18T07:54:20;100604.34;;;-8.99;94.71
26719;BME280;14326;50.794;6.060;2022-12-18T07:56:47;100606.50;;;-8.95;94.90
26719;BME280;14326;50.794;6.060;2022-12-18T07:59:15;100603.63;;;-8.81;95.11
26719;BME280;14326;50.794;6.060;2022-12-18T08:01:41;100608.47;;;-8.76;95.27
26719;BME280;14326;50.794;6.060;2022-12-18T08:04:08;100606.22;;;-8.73;95.19
26719;BME280;14326;50.794;6.060;2022-12-18T08:06:34;100600.88;;;-8.65;95.05
26719;BME280;14326;50.794;6.060;2022-12-18T08:09:01;100598.16;;;-8.58;95.21
26719;BME280;14326;50.794;6.060;2022-12-18T08:11:28;100588.78;;;-8.49;95.40
26719;BME280;14326;50.794;6.060;2022-12-18T08:13:55;100591.78;;;-8.45;95.45
26719;BME280;14326;50.794;6.060;2022-12-18T08:16:24;100589.91;;;-8.29;95.28
26719;BME280;14326;50.794;6.060;2022-12-18T08:18:52;100583.09;;;-8.28;95.18
26719;BME280;14326;50.794;6.060;2022-12-18T08:21:20;100585.81;;;-8.27;95.46
26719;BME280;14326;50.794;6.060;2022-12-18T08:23:48;100579.72;;;-8.18;95.18
26719;BME280;14326;50.794;6.060;2022-12-18T08:26:16;100583.38;;;-8.16;95.81
26719;BME280;14326;50.794;6.060;2022-12-18T08:28:43;100573.22;;;-8.15;96.44
26719;BME280;14326;50.794;6.060;2022-12-18T08:31:10;100573.97;;;-8.07;96.86
26719;BME280;14326;50.794;6.060;2022-12-18T08:33:38;100573.91;;;-7.90;96.75
26719;BME280;14326;50.794;6.060;2022-12-18T08:36:06;100569.19;;;-7.86;96.76
26719;BME280;14326;50.794;6.060;2022-12-18T08:38:36;100572.63;;;-7.76;96.81
26719;BME280;14326;50.794;6.060;2022-12-18T08:41:04;100575.47;;;-7.65;97.30
26719;BME280;14326;50.794;6.060;2022-12-18T08:43:31;100572.69;;;-7.58;97.40
26719;BME280;14326;50.794;6.060;2022-12-18T08:46:15;100580.19;;;-7.33;97.65
26719;BME280;14326;50.794;6.060;2022-12-18T08:48:44;100581.50;;;-7.28;97.80
26719;BME280;14326;50.794;6.060;2022-12-18T08:51:11;100583.16;;;-7.20;98.23
26719;BME280;14326;50.794;6.060;2022-12-18T08:53:38;100579.41;;;-7.05;98.69
26719;BME280;14326;50.794;6.060;2022-12-18T08:56:05;100586.97;;;-6.98;99.22
26719;BME280;14326;50.794;6.060;2022-12-18T08:58:32;100594.78;;;-6.88;99.78
26719;BME280;14326;50.794;6.060;2022-12-18T09:01:00;100580.75;;;-6.81;100.00
26719;BME280;14326;50.794;6.060;2022-12-18T09:03:27;100580.81;;;-6.71;100.00
26719;BME280;14326;50.794;6.060;2022-12-18T09:05:55;100569.00;;;-6.59;100.00
26719;BME280;14326;50.794;6.060;2022-12-18T09:08:22;100562.25;;;-6.48;100.00
26719;BME280;14326;50.794;6.060;2022-12-18T09:10:49;100556.75;;;-6.33;100.00
26719;BME280;14326;50.794;6.060;2022-12-18T09:13:17;100545.84;;;-6.20;100.00
26719;BME280;14326;50.794;6.060;2022-12-18T09:15:45;100538.88;;;-6.11;100.00
26719;BME280;14326;50.794;6.060;2022-12-18T09:18:13;100532.69;;;-6.03;100.00
26719;BME280;14326;50.794;6.060;2022-12-18T09:20:40;100523.41;;;-5.91;100.00
26719;BME280;14326;50.794;6.060;2022-12-18T09:23:08;100538.19;;;-5.80;100.00
26719;BME280;14326;50.794;6.060;2022-12-18T09:25:36;100533.69;;;-5.72;100.00
26719;BME280;14326;50.794;6.060;2022-12-18T09:28:04;100539.50;;;-5.64;100.00
26719;BME280;14326;50.794;6.060;2022-12-18T09:30:32;100539.53;;;-5.54;100.00
26719;BME280;14326;50.794;6.060;2022-12-18T09:33:00;100535.91;;;-5.46;100.00
26719;BME280;14326;50.794;6.060;2022-12-18T09:35:26;100542.53;;;-5.40;100.00
26719;BME280;14326;50.794;6.060;2022-12-18T09:37:54;100540.75;;;-5.30;100.00
26719;BME280;14326;50.794;6.060;2022-12-18T09:40:24;100541.66;;;-5.20;100.00
26719;BME280;14326;50.794;6.060;2022-12-18T09:42:55;100532.31;;;-5.08;100.00
26719;BME280;14326;50.794;6.060;2022-12-18T09:45:24;100531.41;;;-4.98;100.00
26719;BME280;14326;50.794;6.060;2022-12-18T09:47:52;100526.19;;;-4.88;100.00
26719;BME280;14326;50.794;6.060;2022-12-18T09:50:26;100530.50;;;-4.78;100.00
26719;BME280;14326;50.794;6.060;2022-12-18T09:52:57;100523.47;;;-4.69;100.00
26719;BME280;14326;50.794;6.060;2022-12-18T09:55:31;100513.59;;;-4.63;100.00
26719;BME280;14326;50.794;6.060;2022-12-18T09:58:02;100522.66;;;-4.58;100.00
26719;BME280;14326;50.794;6.060;2022-12-18T10:00:32;100512.28;;;-4.48;100.00
26719;BME280;14326;50.794;6.060;2022-12-18T10:03:01;100508.72;;;-4.38;100.00
26719;BME280;14326;50.794;6.060;2022-12-18T10:05:35;100509.22;;;-4.32;100.00
26719;BME280;14326;50.794;6.060;2022-12-18T10:08:07;100515.81;;;-4.26;100.00
26719;BME280;14326;50.794;6.060;2022-12-18T10:10:44;100510.44;;;-4.17;100.00
26719;BME280;14326;50.794;6.060;2022-12-18T10:13:20;100501.34;;;-4.12;100.00
26719;BME280;14326;50.794;6.060;2022-12-18T10:16:00;100504.00;;;-4.00;100.00
26719;BME280;14326;50.794;6.060;2022-12-18T10:18:49;100499.78;;;-3.88;100.00
26719;BME280;14326;50.794;6.060;2022-12-18T10:21:28;100496.13;;;-3.80;100.00
26719;BME280;14326;50.794;6.060;2022-12-18T10:24:03;100495.06;;;-3.72;99.84
26719;BME280;14326;50.794;6.060;2022-12-18T10:26:37;100485.38;;;-3.63;99.18
26719;BME280;14326;50.794;6.060;2022-12-18T10:29:08;100483.13;;;-3.58;98.83
26719;BME280;14326;50.794;6.060;2022-12-18T10:31:37;100483.72;;;-3.51;98.76
26719;BME280;14326;50.794;6.060;2022-12-18T10:34:07;100492.25;;;-3.42;97.89
26719;BME280;14326;50.794;6.060;2022-12-18T10:36:35;100489.31;;;-3.35;97.64
26719;BME280;14326;50.794;6.060;2022-12-18T10:39:15;100495.78;;;-3.30;97.22
26719;BME280;14326;50.794;6.060;2022-12-18T10:41:43;100497.16;;;-3.23;97.14
26719;BME280;14326;50.794;6.060;2022-12-18T10:44:16;100493.22;;;-3.18;95.97
26719;BME280;14326;50.794;6.060;2022-12-18T10:46:44;100486.91;;;-3.10;95.51
26719;BME280;14326;50.794;6.060;2022-12-18T10:49:21;100490.88;;;-3.03;95.60
26719;BME280;14326;50.794;6.060;2022-12-18T10:51:48;100483.56;;;-2.97;96.34
26719;BME280;14326;50.794;6.060;2022-12-18T10:54:17;100479.47;;;-2.94;96.94
26719;BME280;14326;50.794;6.060;2022-12-18T10:56:46;100483.31;;;-2.89;97.42
26719;BME280;14326;50.794;6.060;2022-12-18T10:59:14;100477.69;;;-2.83;97.49
26719;BME280;14326;50.794;6.060;2022-12-18T11:01:49;100477.47;;;-2.74;97.60
26719;BME280;14326;50.794;6.060;2022-12-18T11:04:19;100470.13;;;-2.68;98.08
26719;BME280;14326;50.794;6.060;2022-12-18T11:06:58;100454.28;;;-2.60;98.33
26719;BME280;14326;50.794;6.060;2022-12-18T11:09:27;100444.19;;;-2.55;98.28
26719;BME280;14326;50.794;6.060;2022-12-18T11:11:56;100441.25;;;-2.48;99.24
26719;BME280;14326;50.794;6.060;2022-12-18T11:14:26;100449.63;;;-2.40;99.49
26719;BME280;14326;50.794;6.060;2022-12-18T11:16:54;100440.34;;;-2.37;99.49
26719;BME280;14326;50.794;6.060;2022-12-18T11:19:29;100445.09;;;-2.31;99.49
26719;BME280;14326;50.794;6.060;2022-12-18T11:21:57;100436.69;;;-2.27;99.86
26719;BME280;14326;50.794;6.060;2022-12-18T11:24:28;100426.72;;;-2.21;99.39
26719;BME280;14326;50.794;6.060;2022-12-18T11:26:58;100420.13;;;-2.16;99.43
26719;BME280;14326;50.794;6.060;2022-12-18T11:29:34;100420.09;;;-2.04;100.00
26719;BME280;14326;50.794;6.060;2022-12-18T11:32:25;100429.25;;;-1.98;99.98
26719;BME280;14326;50.794;6.060;2022-12-18T11:34:59;100438.00;;;-1.97;100.00
26719;BME280;14326;50.794;6.060;2022-12-18T11:37:28;100423.25;;;-1.97;100.00
26719;BME280;14326;50.794;6.060;2022-12-18T11:39:57;100407.03;;;-1.93;100.00
26719;BME280;14326;50.794;6.060;2022-12-18T11:42:32;100407.59;;;-1.85;100.00
26719;BME280;14326;50.794;6.060;2022-12-18T11:45:08;100403.38;;;-1.83;100.00
26719;BME280;14326;50.794;6.060;2022-12-18T11:47:49;100405.53;;;-1.78;100.00
26719;BME280;14326;50.794;6.060;2022-12-18T11:50:22;100406.63;;;-1.74;100.00
26719;BME280;14326;50.794;6.060;2022-12-18T11:52:51;100402.50;;;-1.71;100.00
26719;BME280;14326;50.794;6.060;2022-12-18T11:55:25;100394.91;;;-1.68;100.00
26719;BME280;14326;50.794;6.060;2022-12-18T11:58:00;100392.75;;;-1.61;100.00
26719;BME280;14326;50.794;6.060;2022-12-18T12:00:29;100391.16;;;-1.59;99.81
26719;BME280;14326;50.794;6.060;2022-12-18T12:03:20;100396.88;;;-1.52;99.61
26719;BME280;14326;50.794;6.060;2022-12-18T12:05:58;100392.19;;;-1.44;99.59
26719;BME280;14326;50.794;6.060;2022-12-18T12:08:37;100381.28;;;-1.39;98.91
26719;BME280;14326;50.794;6.060;2022-12-18T12:11:12;100371.06;;;-1.36;97.70
26719;BME280;14326;50.794;6.060;2022-12-18T12:14:01;100381.09;;;-1.29;96.64
26719;BME280;14326;50.794;6.060;2022-12-18T12:16:35;100360.53;;;-1.24;97.40
26719;BME280;14326;50.794;6.060;2022-12-18T12:19:19;100366.25;;;-1.16;97.41
26719;BME280;14326;50.794;6.060;2022-12-18T12:21:55;100362.25;;;-1.11;97.18
26719;BME280;14326;50.794;6.060;2022-12-18T12:24:33;100372.19;;;-1.06;97.87
26719;BME280;14326;50.794;6.060;2022-12-18T12:27:13;100369.00;;;-1.02;97.78
26719;BME280;14326;50.794;6.060;2022-12-18T12:29:50;100357.03;;;-0.98;97.61
26719;BME280;14326;50.794;6.060;2022-12-18T12:32:32;100350.34;;;-0.95;97.42
26719;BME280;14326;50.794;6.060;2022-12-18T12:35:13;100356.38;;;-0.82;96.20
26719;BME280;14326;50.794;6.060;2022-12-18T12:37:51;100345.09;;;-0.82;95.89
26719;BME280;14326;50.794;6.060;2022-12-18T12:40:26;100349.81;;;-0.76;95.72
26719;BME280;14326;50.794;6.060;2022-12-18T12:42:56;100345.59;;;-0.74;95.68
26719;BME280;14326;50.794;6.060;2022-12-18T12:45:44;100335.44;;;-0.69;95.76
26719;BME280;14326;50.794;6.060;2022-12-18T12:48:19;100317.84;;;-0.59;95.69
26719;BME280;14326;50.794;6.060;2022-12-18T12:50:48;100324.69;;;-0.48;94.86
26719;BME280;14326;50.794;6.060;2022-12-18T12:53:22;100322.00;;;-0.34;94.77
26719;BME280;14326;50.794;6.060;2022-12-18T12:55:52;100310.13;;;-0.29;95.14
26719;BME280;14326;50.794;6.060;2022-12-18T12:58:28;100301.97;;;-0.21;95.16
26719;BME280;14326;50.794;6.060;2022-12-18T13:01:09;100300.56;;;-0.16;95.15